JBU1188 TNCM-KJFK
Flight info
| Callsign | JBU1188 |
|---|---|
| Flight time | N/A |
| Altitude | 34000 |
| Route | TRNKY DCT CAFFE DCT THANK L456 HANCY/M077F340 L456 VINSO/M077F360 L456 DARUX L459 SAVIK/N0443F360 DCT YAALE/N0447F370 Y495 MOUGH/N0449F360 Y495 CAMRN |
| Aircraft | A320/M-SDE3FGHIRWY/LB1 |
Departure
| Time | 2026-05-04 18:50 |
|---|---|
| Airport | Princess Juliana International Airport (TNCM) |
Arrival
| Time | N/A |
|---|---|
| Airport | John F. Kennedy International Airport (KJFK) |
| Time | Latitude | Longitude | Altitude | Speed | Heading |
|---|---|---|---|---|---|
| 2026-05-04 18:12 | 18.04160 | -63.11365 | 17 ft | 0 kts | 171° |
| 2026-05-04 18:37 | 18.04163 | -63.11366 | 17 ft | 2 kts | 171° |
| 2026-05-04 18:37 | 18.04178 | -63.11368 | 17 ft | 2 kts | 171° |
| 2026-05-04 18:37 | 18.04193 | -63.11370 | 17 ft | 2 kts | 171° |
| 2026-05-04 18:37 | 18.04208 | -63.11372 | 16 ft | 2 kts | 172° |
| 2026-05-04 18:38 | 18.04223 | -63.11374 | 16 ft | 2 kts | 192° |
| 2026-05-04 18:38 | 18.04236 | -63.11366 | 16 ft | 2 kts | 236° |
| 2026-05-04 18:38 | 18.04240 | -63.11357 | 16 ft | 0 kts | 263° |
| 2026-05-04 18:38 | 18.04241 | -63.11353 | 16 ft | 0 kts | 262° |
| 2026-05-04 18:41 | 18.04240 | -63.11353 | 16 ft | 1 kts | 262° |
| 2026-05-04 18:41 | 18.04234 | -63.11394 | 16 ft | 7 kts | 261° |
| 2026-05-04 18:41 | 18.04225 | -63.11453 | 16 ft | 9 kts | 261° |
| 2026-05-04 18:41 | 18.04195 | -63.11513 | 16 ft | 9 kts | 227° |
| 2026-05-04 18:42 | 18.04150 | -63.11568 | 16 ft | 10 kts | 231° |
| 2026-05-04 18:42 | 18.04104 | -63.11626 | 17 ft | 10 kts | 230° |
| 2026-05-04 18:42 | 18.04064 | -63.11691 | 17 ft | 11 kts | 258° |
| 2026-05-04 18:42 | 18.04054 | -63.11760 | 17 ft | 7 kts | 261° |
| 2026-05-04 18:43 | 18.04052 | -63.11776 | 18 ft | 0 kts | 261° |
| 2026-05-04 18:44 | 18.04051 | -63.11780 | 18 ft | 1 kts | 262° |
| 2026-05-04 18:44 | 18.04048 | -63.11807 | 18 ft | 4 kts | 262° |
| 2026-05-04 18:45 | 18.04042 | -63.11846 | 18 ft | 6 kts | 262° |
| 2026-05-04 18:45 | 18.04041 | -63.11857 | 18 ft | 0 kts | 261° |
| 2026-05-04 18:45 | 18.04041 | -63.11858 | 18 ft | 0 kts | 258° |
| 2026-05-04 18:46 | 18.04041 | -63.11859 | 18 ft | 0 kts | 260° |
| 2026-05-04 18:46 | 18.04039 | -63.11869 | 18 ft | 2 kts | 260° |
| 2026-05-04 18:46 | 18.04030 | -63.11898 | 19 ft | 5 kts | 236° |
| 2026-05-04 18:47 | 18.04008 | -63.11932 | 20 ft | 6 kts | 235° |
| 2026-05-04 18:47 | 18.03980 | -63.11969 | 21 ft | 5 kts | 215° |
| 2026-05-04 18:47 | 18.03950 | -63.11963 | 21 ft | 5 kts | 145° |
| 2026-05-04 18:47 | 18.03945 | -63.11919 | 20 ft | 7 kts | 71° |
| 2026-05-04 18:48 | 18.03949 | -63.11904 | 20 ft | 0 kts | 81° |
| 2026-05-04 18:49 | 18.03962 | -63.11810 | 18 ft | 44 kts | 82° |
| 2026-05-04 18:49 | 18.04039 | -63.11254 | 19 ft | 109 kts | 81° |
| 2026-05-04 18:49 | 18.04188 | -63.10245 | 55 ft | 159 kts | 83° |
| 2026-05-04 18:50 | 18.04298 | -63.09145 | 757 ft | 147 kts | 101° |
| 2026-05-04 18:50 | 18.03786 | -63.08255 | 1391 ft | 149 kts | 137° |
| 2026-05-04 18:50 | 18.02887 | -63.07713 | 1968 ft | 155 kts | 157° |
| 2026-05-04 18:50 | 18.01791 | -63.07558 | 2382 ft | 169 kts | 184° |
| 2026-05-04 18:51 | 18.00610 | -63.07900 | 2720 ft | 176 kts | 190° |
| 2026-05-04 18:51 | 17.99398 | -63.08242 | 3051 ft | 181 kts | 182° |
| 2026-05-04 18:51 | 17.98155 | -63.08141 | 3331 ft | 183 kts | 155° |
| 2026-05-04 18:51 | 17.97071 | -63.07418 | 3669 ft | 187 kts | 130° |
| 2026-05-04 18:52 | 17.96519 | -63.06177 | 3946 ft | 199 kts | 96° |
| 2026-05-04 18:52 | 17.96827 | -63.04703 | 4177 ft | 222 kts | 62° |
| 2026-05-04 18:52 | 17.97986 | -63.03521 | 4433 ft | 250 kts | 31° |
| 2026-05-04 18:52 | 17.99749 | -63.03069 | 4759 ft | 276 kts | 0° |
| 2026-05-04 18:53 | 18.01677 | -63.03565 | 5357 ft | 287 kts | 342° |
| 2026-05-04 18:53 | 18.03555 | -63.04292 | 6088 ft | 288 kts | 342° |
| 2026-05-04 18:53 | 18.05443 | -63.05012 | 6806 ft | 289 kts | 342° |
| 2026-05-04 18:53 | 18.07351 | -63.05737 | 7506 ft | 290 kts | 342° |
| 2026-05-04 18:54 | 18.09255 | -63.06461 | 8169 ft | 292 kts | 341° |
| 2026-05-04 18:54 | 18.11182 | -63.07193 | 8817 ft | 294 kts | 341° |
| 2026-05-04 18:54 | 18.13090 | -63.07918 | 9424 ft | 295 kts | 341° |
| 2026-05-04 18:54 | 18.15031 | -63.08657 | 10010 ft | 297 kts | 341° |
| 2026-05-04 18:55 | 18.17002 | -63.09407 | 10456 ft | 303 kts | 341° |
| 2026-05-04 18:55 | 18.21153 | -63.10987 | 10920 ft | 331 kts | 341° |
| 2026-05-04 18:55 | 18.23353 | -63.11826 | 11234 ft | 340 kts | 340° |
| 2026-05-04 18:56 | 18.25619 | -63.12688 | 11712 ft | 343 kts | 340° |
| 2026-05-04 18:56 | 18.27873 | -63.13548 | 12180 ft | 346 kts | 340° |
| 2026-05-04 18:56 | 18.30170 | -63.14423 | 12624 ft | 349 kts | 340° |
| 2026-05-04 18:56 | 18.32471 | -63.15302 | 13064 ft | 352 kts | 340° |
| 2026-05-04 18:57 | 18.34773 | -63.16180 | 13535 ft | 354 kts | 340° |
| 2026-05-04 18:57 | 18.37107 | -63.17072 | 14020 ft | 355 kts | 340° |
| 2026-05-04 18:57 | 18.39444 | -63.17966 | 14498 ft | 356 kts | 338° |
| 2026-05-04 18:57 | 18.41679 | -63.19059 | 14970 ft | 356 kts | 329° |
| 2026-05-04 18:58 | 18.43740 | -63.20498 | 15438 ft | 356 kts | 321° |
| 2026-05-04 18:58 | 18.45658 | -63.22184 | 15921 ft | 356 kts | 318° |
| 2026-05-04 18:58 | 18.47515 | -63.23890 | 16370 ft | 356 kts | 317° |
| 2026-05-04 18:58 | 18.49392 | -63.25625 | 16815 ft | 357 kts | 317° |
| 2026-05-04 18:59 | 18.51274 | -63.27360 | 17253 ft | 358 kts | 317° |
| 2026-05-04 18:59 | 18.53148 | -63.29084 | 17676 ft | 359 kts | 317° |
| 2026-05-04 18:59 | 18.55021 | -63.30806 | 18035 ft | 361 kts | 317° |
| 2026-05-04 18:59 | 18.56939 | -63.32568 | 18353 ft | 365 kts | 317° |
| 2026-05-04 19:00 | 18.58864 | -63.34332 | 18677 ft | 368 kts | 318° |
| 2026-05-04 19:00 | 18.60812 | -63.36117 | 19007 ft | 371 kts | 318° |
| 2026-05-04 19:00 | 18.62756 | -63.37901 | 19312 ft | 374 kts | 318° |
| 2026-05-04 19:00 | 18.64731 | -63.39711 | 19617 ft | 377 kts | 318° |
| 2026-05-04 19:01 | 18.66725 | -63.41540 | 19927 ft | 380 kts | 319° |
| 2026-05-04 19:01 | 18.68756 | -63.43402 | 20240 ft | 383 kts | 319° |
| 2026-05-04 19:01 | 18.70768 | -63.45246 | 20546 ft | 385 kts | 319° |
| 2026-05-04 19:01 | 18.72800 | -63.47111 | 20841 ft | 388 kts | 319° |
| 2026-05-04 19:02 | 18.74844 | -63.48986 | 21114 ft | 391 kts | 319° |
| 2026-05-04 19:02 | 18.76911 | -63.50884 | 21382 ft | 394 kts | 319° |
| 2026-05-04 19:02 | 18.78993 | -63.52797 | 21647 ft | 396 kts | 319° |
| 2026-05-04 19:02 | 18.81082 | -63.54715 | 21905 ft | 399 kts | 320° |
| 2026-05-04 19:03 | 18.83183 | -63.56644 | 22152 ft | 402 kts | 320° |
| 2026-05-04 19:03 | 18.85317 | -63.58605 | 22393 ft | 405 kts | 320° |
| 2026-05-04 19:03 | 18.87458 | -63.60573 | 22647 ft | 408 kts | 320° |
| 2026-05-04 19:03 | 18.89581 | -63.62526 | 22939 ft | 409 kts | 320° |
| 2026-05-04 19:04 | 18.91742 | -63.64514 | 23249 ft | 410 kts | 320° |
| 2026-05-04 19:04 | 18.93886 | -63.66487 | 23560 ft | 410 kts | 320° |
| 2026-05-04 19:04 | 18.96048 | -63.68477 | 23865 ft | 411 kts | 319° |
| 2026-05-04 19:04 | 18.98229 | -63.70486 | 24174 ft | 411 kts | 319° |
| 2026-05-04 19:05 | 19.00384 | -63.72471 | 24474 ft | 412 kts | 320° |
| 2026-05-04 19:05 | 19.02525 | -63.74445 | 24767 ft | 412 kts | 319° |
| 2026-05-04 19:05 | 19.04718 | -63.76468 | 25063 ft | 413 kts | 319° |
| 2026-05-04 19:05 | 19.06861 | -63.78444 | 25338 ft | 413 kts | 319° |
| 2026-05-04 19:06 | 19.09042 | -63.80456 | 25608 ft | 414 kts | 319° |
| 2026-05-04 19:06 | 19.11222 | -63.82469 | 25874 ft | 415 kts | 319° |
| 2026-05-04 19:06 | 19.13413 | -63.84493 | 26144 ft | 416 kts | 319° |
| 2026-05-04 19:06 | 19.15594 | -63.86508 | 26398 ft | 417 kts | 319° |
| 2026-05-04 19:07 | 19.17767 | -63.88518 | 26645 ft | 418 kts | 319° |
| 2026-05-04 19:07 | 19.19985 | -63.90568 | 26903 ft | 419 kts | 319° |
| 2026-05-04 19:07 | 19.22176 | -63.92595 | 27154 ft | 420 kts | 319° |
| 2026-05-04 19:07 | 19.24374 | -63.94627 | 27414 ft | 421 kts | 319° |
| 2026-05-04 19:08 | 19.26573 | -63.96663 | 27680 ft | 421 kts | 319° |
| 2026-05-04 19:08 | 19.28790 | -63.98716 | 27952 ft | 421 kts | 319° |
| 2026-05-04 19:08 | 19.30999 | -64.00762 | 28191 ft | 422 kts | 319° |
| 2026-05-04 19:08 | 19.33231 | -64.02831 | 28435 ft | 423 kts | 319° |
| 2026-05-04 19:09 | 19.35435 | -64.04874 | 28655 ft | 424 kts | 319° |
| 2026-05-04 19:09 | 19.37657 | -64.06936 | 28874 ft | 425 kts | 319° |
| 2026-05-04 19:09 | 19.39885 | -64.09002 | 29083 ft | 426 kts | 319° |
| 2026-05-04 19:09 | 19.42117 | -64.11073 | 29286 ft | 428 kts | 319° |
| 2026-05-04 19:10 | 19.44379 | -64.13174 | 29476 ft | 429 kts | 319° |
| 2026-05-04 19:10 | 19.46619 | -64.15253 | 29677 ft | 431 kts | 319° |
| 2026-05-04 19:10 | 19.48863 | -64.17339 | 29866 ft | 432 kts | 319° |
| 2026-05-04 19:10 | 19.51153 | -64.19467 | 30051 ft | 433 kts | 319° |
| 2026-05-04 19:11 | 19.53402 | -64.21558 | 30243 ft | 434 kts | 319° |
| 2026-05-04 19:11 | 19.55670 | -64.23667 | 30412 ft | 436 kts | 319° |
| 2026-05-04 19:11 | 19.57979 | -64.25816 | 30588 ft | 437 kts | 319° |
| 2026-05-04 19:11 | 19.60257 | -64.27937 | 30771 ft | 438 kts | 318° |
| 2026-05-04 19:12 | 19.62531 | -64.30054 | 31000 ft | 438 kts | 318° |
| 2026-05-04 19:12 | 19.67116 | -64.34329 | 31520 ft | 435 kts | 318° |
| 2026-05-04 19:12 | 19.69380 | -64.36440 | 31749 ft | 435 kts | 318° |
| 2026-05-04 19:13 | 19.71635 | -64.38544 | 31965 ft | 434 kts | 318° |
| 2026-05-04 19:13 | 19.73924 | -64.40681 | 32188 ft | 434 kts | 318° |
| 2026-05-04 19:13 | 19.76184 | -64.42791 | 32371 ft | 434 kts | 318° |
| 2026-05-04 19:13 | 19.78470 | -64.44928 | 32532 ft | 435 kts | 318° |
| 2026-05-04 19:14 | 19.80736 | -64.47045 | 32678 ft | 436 kts | 318° |
| 2026-05-04 19:14 | 19.83029 | -64.49189 | 32840 ft | 438 kts | 318° |
| 2026-05-04 19:14 | 19.85311 | -64.51324 | 33024 ft | 438 kts | 318° |
| 2026-05-04 19:14 | 19.87597 | -64.53463 | 33225 ft | 438 kts | 318° |
| 2026-05-04 19:15 | 19.89889 | -64.55608 | 33404 ft | 439 kts | 318° |
| 2026-05-04 19:15 | 19.92182 | -64.57757 | 33583 ft | 439 kts | 318° |
| 2026-05-04 19:15 | 19.94476 | -64.59907 | 33752 ft | 439 kts | 318° |
| 2026-05-04 19:15 | 19.96766 | -64.62054 | 33914 ft | 439 kts | 317° |
| 2026-05-04 19:16 | 19.99069 | -64.64214 | 33992 ft | 440 kts | 317° |
| 2026-05-04 19:16 | 20.03643 | -64.68510 | 33999 ft | 440 kts | 317° |
| 2026-05-04 19:17 | 20.08224 | -64.72814 | 33998 ft | 439 kts | 317° |
| 2026-05-04 19:17 | 20.12815 | -64.77146 | 33998 ft | 439 kts | 317° |
| 2026-05-04 19:18 | 20.17375 | -64.81477 | 34003 ft | 439 kts | 317° |
| 2026-05-04 19:18 | 20.21925 | -64.85805 | 34002 ft | 439 kts | 317° |
| 2026-05-04 19:19 | 20.26474 | -64.90136 | 34003 ft | 439 kts | 317° |
| 2026-05-04 19:19 | 20.31018 | -64.94469 | 34003 ft | 439 kts | 317° |
| 2026-05-04 19:20 | 20.35580 | -64.98820 | 34003 ft | 439 kts | 317° |
| 2026-05-04 19:20 | 20.40153 | -65.03185 | 34006 ft | 439 kts | 316° |
| 2026-05-04 19:21 | 20.44010 | -65.06872 | 34003 ft | 439 kts | 316° |
| 2026-05-04 19:21 | 20.48555 | -65.11217 | 34002 ft | 438 kts | 316° |
| 2026-05-04 19:22 | 20.53112 | -65.15577 | 34002 ft | 439 kts | 316° |
| 2026-05-04 19:22 | 20.57646 | -65.19920 | 34005 ft | 439 kts | 316° |
| 2026-05-04 19:23 | 20.62198 | -65.24284 | 34008 ft | 439 kts | 316° |
| 2026-05-04 19:23 | 20.66738 | -65.28638 | 34012 ft | 438 kts | 316° |
| 2026-05-04 19:24 | 20.71263 | -65.32981 | 34013 ft | 438 kts | 316° |
| 2026-05-04 19:24 | 20.75800 | -65.37341 | 34013 ft | 437 kts | 316° |
| 2026-05-04 19:25 | 20.80321 | -65.41688 | 34013 ft | 437 kts | 316° |
| 2026-05-04 19:25 | 20.84836 | -65.46035 | 34011 ft | 437 kts | 316° |
| 2026-05-04 19:26 | 20.89353 | -65.50387 | 34012 ft | 438 kts | 316° |
| 2026-05-04 19:26 | 20.93883 | -65.54754 | 34012 ft | 438 kts | 316° |
| 2026-05-04 19:27 | 20.98413 | -65.59126 | 34014 ft | 436 kts | 316° |
| 2026-05-04 19:27 | 21.02912 | -65.63472 | 34014 ft | 437 kts | 315° |
| 2026-05-04 19:28 | 21.07422 | -65.67831 | 34015 ft | 436 kts | 315° |
| 2026-05-04 19:28 | 21.11912 | -65.72176 | 34014 ft | 436 kts | 315° |
| 2026-05-04 19:29 | 21.16408 | -65.76531 | 34014 ft | 436 kts | 315° |
| 2026-05-04 19:29 | 21.20911 | -65.80895 | 34015 ft | 437 kts | 315° |
| 2026-05-04 19:30 | 21.25433 | -65.85286 | 34015 ft | 437 kts | 315° |
| 2026-05-04 19:30 | 21.29915 | -65.89642 | 34014 ft | 436 kts | 315° |
| 2026-05-04 19:31 | 21.34423 | -65.94027 | 34015 ft | 436 kts | 315° |
| 2026-05-04 19:31 | 21.38913 | -65.98391 | 34015 ft | 436 kts | 316° |
| 2026-05-04 19:32 | 21.43798 | -66.02286 | 34015 ft | 441 kts | 325° |
| 2026-05-04 19:32 | 21.49316 | -66.05278 | 34018 ft | 445 kts | 334° |
| 2026-05-04 19:33 | 21.55281 | -66.07217 | 34013 ft | 450 kts | 344° |
| 2026-05-04 19:33 | 21.61439 | -66.08494 | 34015 ft | 451 kts | 346° |
| 2026-05-04 19:34 | 21.67642 | -66.09731 | 34018 ft | 450 kts | 345° |
| 2026-05-04 19:34 | 21.73772 | -66.10968 | 34016 ft | 450 kts | 345° |
| 2026-05-04 19:35 | 21.79955 | -66.12221 | 34017 ft | 452 kts | 345° |
| 2026-05-04 19:35 | 21.86164 | -66.13484 | 34015 ft | 452 kts | 345° |
| 2026-05-04 19:36 | 21.92356 | -66.14748 | 34014 ft | 452 kts | 345° |
| 2026-05-04 19:36 | 21.98574 | -66.16016 | 34017 ft | 452 kts | 345° |
| 2026-05-04 19:37 | 22.04767 | -66.17278 | 34017 ft | 451 kts | 345° |
| 2026-05-04 19:37 | 22.10929 | -66.18526 | 34017 ft | 451 kts | 345° |
| 2026-05-04 19:38 | 22.17118 | -66.19788 | 34014 ft | 451 kts | 345° |
| 2026-05-04 19:38 | 22.23325 | -66.21057 | 34016 ft | 452 kts | 345° |
| 2026-05-04 19:39 | 22.29514 | -66.22323 | 34015 ft | 453 kts | 345° |
| 2026-05-04 19:39 | 22.35712 | -66.23593 | 34017 ft | 452 kts | 345° |
| 2026-05-04 19:40 | 22.41918 | -66.24866 | 34016 ft | 452 kts | 345° |
| 2026-05-04 19:40 | 22.48114 | -66.26138 | 34015 ft | 452 kts | 345° |
| 2026-05-04 19:41 | 22.54305 | -66.27408 | 34016 ft | 453 kts | 345° |
| 2026-05-04 19:41 | 22.60511 | -66.28684 | 34014 ft | 452 kts | 345° |
| 2026-05-04 19:42 | 22.66689 | -66.29956 | 34014 ft | 453 kts | 345° |
| 2026-05-04 19:42 | 22.72898 | -66.31235 | 34016 ft | 452 kts | 344° |
| 2026-05-04 19:43 | 22.79111 | -66.32519 | 34014 ft | 453 kts | 344° |
| 2026-05-04 19:43 | 22.85316 | -66.33804 | 34015 ft | 453 kts | 344° |
| 2026-05-04 19:44 | 22.91523 | -66.35088 | 34016 ft | 453 kts | 344° |
| 2026-05-04 19:44 | 22.97741 | -66.36368 | 34015 ft | 454 kts | 344° |
| 2026-05-04 19:45 | 23.03925 | -66.37643 | 34017 ft | 453 kts | 344° |
| 2026-05-04 19:45 | 23.10166 | -66.38933 | 34013 ft | 453 kts | 344° |
| 2026-05-04 19:46 | 23.16364 | -66.40217 | 34016 ft | 453 kts | 344° |
| 2026-05-04 19:46 | 23.22560 | -66.41503 | 34016 ft | 453 kts | 344° |
| 2026-05-04 19:47 | 23.28752 | -66.42790 | 34015 ft | 453 kts | 344° |
| 2026-05-04 19:47 | 23.34980 | -66.44086 | 34015 ft | 454 kts | 344° |
| 2026-05-04 19:48 | 23.41178 | -66.45375 | 34015 ft | 454 kts | 343° |
| 2026-05-04 19:48 | 23.47404 | -66.46673 | 34017 ft | 453 kts | 343° |
| 2026-05-04 19:49 | 23.53629 | -66.47971 | 34017 ft | 453 kts | 343° |
| 2026-05-04 19:49 | 23.59822 | -66.49264 | 34016 ft | 454 kts | 344° |
| 2026-05-04 19:50 | 23.66054 | -66.50565 | 34015 ft | 454 kts | 343° |
| 2026-05-04 19:50 | 23.72263 | -66.51864 | 34017 ft | 455 kts | 343° |
| 2026-05-04 19:51 | 23.78475 | -66.53165 | 34016 ft | 454 kts | 343° |
| 2026-05-04 19:51 | 23.84698 | -66.54469 | 34012 ft | 455 kts | 343° |
| 2026-05-04 19:52 | 23.90921 | -66.55774 | 34020 ft | 454 kts | 343° |
| 2026-05-04 19:52 | 23.97166 | -66.57085 | 34015 ft | 454 kts | 343° |
| 2026-05-04 19:53 | 24.03366 | -66.58389 | 34017 ft | 455 kts | 343° |
| 2026-05-04 19:53 | 24.09605 | -66.59702 | 34012 ft | 455 kts | 343° |
| 2026-05-04 19:54 | 24.15829 | -66.61013 | 34017 ft | 455 kts | 343° |
| 2026-05-04 19:54 | 24.22074 | -66.62329 | 34017 ft | 456 kts | 343° |
| 2026-05-04 19:55 | 24.28315 | -66.63645 | 34016 ft | 455 kts | 343° |
| 2026-05-04 19:55 | 24.34522 | -66.64957 | 34015 ft | 454 kts | 343° |
| 2026-05-04 19:56 | 24.40745 | -66.66273 | 34020 ft | 455 kts | 343° |
| 2026-05-04 19:56 | 24.47002 | -66.67596 | 34015 ft | 455 kts | 343° |
| 2026-05-04 19:57 | 24.53228 | -66.68916 | 34014 ft | 456 kts | 342° |
| 2026-05-04 19:57 | 24.59453 | -66.70238 | 34016 ft | 456 kts | 342° |
| 2026-05-04 19:58 | 24.65703 | -66.71564 | 34019 ft | 455 kts | 342° |
| 2026-05-04 19:58 | 24.71939 | -66.72888 | 34019 ft | 455 kts | 342° |
| 2026-05-04 19:59 | 24.78214 | -66.74226 | 34013 ft | 456 kts | 342° |
| 2026-05-04 19:59 | 24.84459 | -66.75553 | 34019 ft | 455 kts | 342° |
| 2026-05-04 20:00 | 24.90687 | -66.76882 | 34013 ft | 457 kts | 342° |
| 2026-05-04 20:00 | 24.96923 | -66.78211 | 34018 ft | 457 kts | 342° |
| 2026-05-04 20:01 | 25.03181 | -66.79549 | 34012 ft | 457 kts | 342° |
| 2026-05-04 20:01 | 25.09442 | -66.80888 | 34018 ft | 457 kts | 342° |
| 2026-05-04 20:02 | 25.15700 | -66.82227 | 34010 ft | 457 kts | 342° |
| 2026-05-04 20:02 | 25.21967 | -66.83570 | 34007 ft | 457 kts | 342° |
| 2026-05-04 20:03 | 25.28207 | -66.84909 | 34005 ft | 457 kts | 342° |
| 2026-05-04 20:03 | 25.34479 | -66.86256 | 33998 ft | 457 kts | 342° |
| 2026-05-04 20:04 | 25.40732 | -66.87600 | 34005 ft | 458 kts | 342° |
| 2026-05-04 20:04 | 25.47005 | -66.88950 | 34009 ft | 457 kts | 342° |
| 2026-05-04 20:05 | 25.53257 | -66.90297 | 34005 ft | 458 kts | 342° |
| 2026-05-04 20:05 | 25.59506 | -66.91646 | 33997 ft | 458 kts | 342° |
| 2026-05-04 20:06 | 25.65761 | -66.92995 | 34000 ft | 459 kts | 342° |
| 2026-05-04 20:06 | 25.72050 | -66.94352 | 33998 ft | 459 kts | 342° |
| 2026-05-04 20:07 | 25.78321 | -66.95710 | 33996 ft | 458 kts | 342° |
| 2026-05-04 20:07 | 25.84607 | -66.97072 | 33994 ft | 458 kts | 342° |
| 2026-05-04 20:08 | 25.90869 | -66.98430 | 33999 ft | 458 kts | 342° |
| 2026-05-04 20:08 | 25.97145 | -66.99791 | 33991 ft | 458 kts | 342° |
| 2026-05-04 20:09 | 26.03406 | -67.01153 | 33998 ft | 458 kts | 342° |
| 2026-05-04 20:09 | 26.09684 | -67.02517 | 33996 ft | 458 kts | 342° |
| 2026-05-04 20:10 | 26.15938 | -67.03881 | 33993 ft | 459 kts | 342° |
| 2026-05-04 20:10 | 26.22247 | -67.05257 | 33994 ft | 461 kts | 342° |